sensor_id;sensor_type;location;lat;lon;timestamp;P1;P2;P0
40371;PMS5003;28564;53.346;-6.554;2022-11-14T00:01:16;2;2;
40371;PMS5003;28564;53.346;-6.554;2022-11-14T00:03:43;2;1;
40371;PMS5003;28564;53.346;-6.554;2022-11-14T00:06:14;2;2;
40371;PMS5003;28564;53.346;-6.554;2022-11-14T00:08:41;1;1;
40371;PMS5003;28564;53.346;-6.554;2022-11-14T00:11:08;3;3;
40371;PMS5003;28564;53.346;-6.554;2022-11-14T00:13:35;1;1;
40371;PMS5003;28564;53.346;-6.554;2022-11-14T00:16:03;1;1;
40371;PMS5003;28564;53.346;-6.554;2022-11-14T00:18:30;4;2;
40371;PMS5003;28564;53.346;-6.554;2022-11-14T00:20:57;3;3;
40371;PMS5003;28564;53.346;-6.554;2022-11-14T00:23:24;1;1;
40371;PMS5003;28564;53.346;-6.554;2022-11-14T00:25:51;2;2;
40371;PMS5003;28564;53.346;-6.554;2022-11-14T00:28:18;2;2;
40371;PMS5003;28564;53.346;-6.554;2022-11-14T00:30:46;1;1;
40371;PMS5003;28564;53.346;-6.554;2022-11-14T00:33:13;2;2;
40371;PMS5003;28564;53.346;-6.554;2022-11-14T00:35:48;3;2;
40371;PMS5003;28564;53.346;-6.554;2022-11-14T00:38:16;1;1;
40371;PMS5003;28564;53.346;-6.554;2022-11-14T00:40:43;3;2;
40371;PMS5003;28564;53.346;-6.554;2022-11-14T00:43:11;1;1;
40371;PMS5003;28564;53.346;-6.554;2022-11-14T00:45:38;1;1;
40371;PMS5003;28564;53.346;-6.554;2022-11-14T00:48:05;1;1;
40371;PMS5003;28564;53.346;-6.554;2022-11-14T00:50:32;2;2;
40371;PMS5003;28564;53.346;-6.554;2022-11-14T00:52:59;1;1;
40371;PMS5003;28564;53.346;-6.554;2022-11-14T00:55:26;1;1;
40371;PMS5003;28564;53.346;-6.554;2022-11-14T00:57:53;1;1;
40371;PMS5003;28564;53.346;-6.554;2022-11-14T01:00:21;2;1;
40371;PMS5003;28564;53.346;-6.554;2022-11-14T01:02:49;1;1;
40371;PMS5003;28564;53.346;-6.554;2022-11-14T01:05:16;1;1;
40371;PMS5003;28564;53.346;-6.554;2022-11-14T01:07:43;0;0;
40371;PMS5003;28564;53.346;-6.554;2022-11-14T01:10:10;1;1;
40371;PMS5003;28564;53.346;-6.554;2022-11-14T01:12:37;1;1;
40371;PMS5003;28564;53.346;-6.554;2022-11-14T01:15:05;1;1;
40371;PMS5003;28564;53.346;-6.554;2022-11-14T01:17:32;2;2;
40371;PMS5003;28564;53.346;-6.554;2022-11-14T01:20:00;1;1;
40371;PMS5003;28564;53.346;-6.554;2022-11-14T01:22:28;1;1;
40371;PMS5003;28564;53.346;-6.554;2022-11-14T01:24:55;2;2;
40371;PMS5003;28564;53.346;-6.554;2022-11-14T01:27:23;3;2;
40371;PMS5003;28564;53.346;-6.554;2022-11-14T01:29:50;1;1;
40371;PMS5003;28564;53.346;-6.554;2022-11-14T01:32:17;3;3;
40371;PMS5003;28564;53.346;-6.554;2022-11-14T01:34:45;3;2;
40371;PMS5003;28564;53.346;-6.554;2022-11-14T01:37:12;1;1;
40371;PMS5003;28564;53.346;-6.554;2022-11-14T01:39:39;4;2;
40371;PMS5003;28564;53.346;-6.554;2022-11-14T01:42:06;1;1;
40371;PMS5003;28564;53.346;-6.554;2022-11-14T01:44:37;3;2;
40371;PMS5003;28564;53.346;-6.554;2022-11-14T01:47:10;1;1;
40371;PMS5003;28564;53.346;-6.554;2022-11-14T01:49:40;1;1;
40371;PMS5003;28564;53.346;-6.554;2022-11-14T01:52:10;2;2;
40371;PMS5003;28564;53.346;-6.554;2022-11-14T01:54:42;3;1;
40371;PMS5003;28564;53.346;-6.554;2022-11-14T01:57:16;0;0;
40371;PMS5003;28564;53.346;-6.554;2022-11-14T01:59:48;1;1;
40371;PMS5003;28564;53.346;-6.554;2022-11-14T02:02:19;0;0;
40371;PMS5003;28564;53.346;-6.554;2022-11-14T02:04:48;1;0;
40371;PMS5003;28564;53.346;-6.554;2022-11-14T02:07:19;3;1;
40371;PMS5003;28564;53.346;-6.554;2022-11-14T02:09:48;1;1;
40371;PMS5003;28564;53.346;-6.554;2022-11-14T02:12:16;1;1;
40371;PMS5003;28564;53.346;-6.554;2022-11-14T02:14:46;1;1;
40371;PMS5003;28564;53.346;-6.554;2022-11-14T02:17:17;1;1;
40371;PMS5003;28564;53.346;-6.554;2022-11-14T02:19:47;3;1;
40371;PMS5003;28564;53.346;-6.554;2022-11-14T02:22:16;2;1;
40371;PMS5003;28564;53.346;-6.554;2022-11-14T02:24:43;4;2;
40371;PMS5003;28564;53.346;-6.554;2022-11-14T02:27:10;3;3;
40371;PMS5003;28564;53.346;-6.554;2022-11-14T02:29:39;5;4;
40371;PMS5003;28564;53.346;-6.554;2022-11-14T02:32:06;4;3;
40371;PMS5003;28564;53.346;-6.554;2022-11-14T02:34:34;2;2;
40371;PMS5003;28564;53.346;-6.554;2022-11-14T02:37:01;2;2;
40371;PMS5003;28564;53.346;-6.554;2022-11-14T02:39:28;3;2;
40371;PMS5003;28564;53.346;-6.554;2022-11-14T02:41:55;2;2;
40371;PMS5003;28564;53.346;-6.554;2022-11-14T02:44:23;1;1;
40371;PMS5003;28564;53.346;-6.554;2022-11-14T02:46:50;2;2;
40371;PMS5003;28564;53.346;-6.554;2022-11-14T02:49:17;1;1;
40371;PMS5003;28564;53.346;-6.554;2022-11-14T02:51:44;1;1;
40371;PMS5003;28564;53.346;-6.554;2022-11-14T02:54:11;2;2;
40371;PMS5003;28564;53.346;-6.554;2022-11-14T02:56:38;1;1;
40371;PMS5003;28564;53.346;-6.554;2022-11-14T02:59:05;1;1;
40371;PMS5003;28564;53.346;-6.554;2022-11-14T03:01:33;1;1;
40371;PMS5003;28564;53.346;-6.554;2022-11-14T03:04:01;0;0;
40371;PMS5003;28564;53.346;-6.554;2022-11-14T03:06:28;2;1;
40371;PMS5003;28564;53.346;-6.554;2022-11-14T03:08:55;1;1;
40371;PMS5003;28564;53.346;-6.554;2022-11-14T03:11:22;1;1;
40371;PMS5003;28564;53.346;-6.554;2022-11-14T03:13:49;1;1;
40371;PMS5003;28564;53.346;-6.554;2022-11-14T03:16:16;3;3;
40371;PMS5003;28564;53.346;-6.554;2022-11-14T03:18:43;1;1;
40371;PMS5003;28564;53.346;-6.554;2022-11-14T03:21:12;1;1;
40371;PMS5003;28564;53.346;-6.554;2022-11-14T03:23:40;3;2;
40371;PMS5003;28564;53.346;-6.554;2022-11-14T03:26:08;1;1;
40371;PMS5003;28564;53.346;-6.554;2022-11-14T03:28:37;2;2;
40371;PMS5003;28564;53.346;-6.554;2022-11-14T03:31:06;1;1;
40371;PMS5003;28564;53.346;-6.554;2022-11-14T03:33:34;1;1;
40371;PMS5003;28564;53.346;-6.554;2022-11-14T03:36:02;2;2;
40371;PMS5003;28564;53.346;-6.554;2022-11-14T03:38:30;2;1;
40371;PMS5003;28564;53.346;-6.554;2022-11-14T03:40:58;4;1;
40371;PMS5003;28564;53.346;-6.554;2022-11-14T03:43:29;1;1;
40371;PMS5003;28564;53.346;-6.554;2022-11-14T03:45:57;3;2;
40371;PMS5003;28564;53.346;-6.554;2022-11-14T03:48:24;1;1;
40371;PMS5003;28564;53.346;-6.554;2022-11-14T03:50:51;2;1;
40371;PMS5003;28564;53.346;-6.554;2022-11-14T03:53:18;3;2;
40371;PMS5003;28564;53.346;-6.554;2022-11-14T03:55:45;0;0;
40371;PMS5003;28564;53.346;-6.554;2022-11-14T03:58:12;2;1;
40371;PMS5003;28564;53.346;-6.554;2022-11-14T04:00:40;1;1;
40371;PMS5003;28564;53.346;-6.554;2022-11-14T04:03:07;1;1;
40371;PMS5003;28564;53.346;-6.554;2022-11-14T04:05:34;1;1;
40371;PMS5003;28564;53.346;-6.554;2022-11-14T04:08:03;3;2;
40371;PMS5003;28564;53.346;-6.554;2022-11-14T04:10:30;1;1;
40371;PMS5003;28564;53.346;-6.554;2022-11-14T04:12:57;1;1;
40371;PMS5003;28564;53.346;-6.554;2022-11-14T04:15:24;2;1;
40371;PMS5003;28564;53.346;-6.554;2022-11-14T04:17:51;2;2;
40371;PMS5003;28564;53.346;-6.554;2022-11-14T04:20:19;2;2;
40371;PMS5003;28564;53.346;-6.554;2022-11-14T04:22:46;2;2;
40371;PMS5003;28564;53.346;-6.554;2022-11-14T04:25:13;2;2;
40371;PMS5003;28564;53.346;-6.554;2022-11-14T04:27:40;1;1;
40371;PMS5003;28564;53.346;-6.554;2022-11-14T04:30:08;3;2;
40371;PMS5003;28564;53.346;-6.554;2022-11-14T04:32:36;2;1;
40371;PMS5003;28564;53.346;-6.554;2022-11-14T04:35:03;3;3;
40371;PMS5003;28564;53.346;-6.554;2022-11-14T04:37:31;4;4;
40371;PMS5003;28564;53.346;-6.554;2022-11-14T04:39:58;2;2;
40371;PMS5003;28564;53.346;-6.554;2022-11-14T04:42:25;4;3;
40371;PMS5003;28564;53.346;-6.554;2022-11-14T04:44:53;3;2;
40371;PMS5003;28564;53.346;-6.554;2022-11-14T04:47:20;2;2;
40371;PMS5003;28564;53.346;-6.554;2022-11-14T04:49:47;5;4;
40371;PMS5003;28564;53.346;-6.554;2022-11-14T04:52:14;4;4;
40371;PMS5003;28564;53.346;-6.554;2022-11-14T04:54:41;3;2;
40371;PMS5003;28564;53.346;-6.554;2022-11-14T04:57:08;2;2;
40371;PMS5003;28564;53.346;-6.554;2022-11-14T04:59:35;3;3;
40371;PMS5003;28564;53.346;-6.554;2022-11-14T05:02:04;5;2;
40371;PMS5003;28564;53.346;-6.554;2022-11-14T05:04:31;1;1;
40371;PMS5003;28564;53.346;-6.554;2022-11-14T05:06:58;1;1;
40371;PMS5003;28564;53.346;-6.554;2022-11-14T05:09:25;2;2;
40371;PMS5003;28564;53.346;-6.554;2022-11-14T05:11:52;3;3;
40371;PMS5003;28564;53.346;-6.554;2022-11-14T05:14:19;3;3;
40371;PMS5003;28564;53.346;-6.554;2022-11-14T05:16:46;3;3;
40371;PMS5003;28564;53.346;-6.554;2022-11-14T05:19:14;2;2;
40371;PMS5003;28564;53.346;-6.554;2022-11-14T05:21:41;2;2;
40371;PMS5003;28564;53.346;-6.554;2022-11-14T05:24:08;2;2;
40371;PMS5003;28564;53.346;-6.554;2022-11-14T05:26:35;4;3;
40371;PMS5003;28564;53.346;-6.554;2022-11-14T05:29:03;2;2;
40371;PMS5003;28564;53.346;-6.554;2022-11-14T05:31:30;1;1;
40371;PMS5003;28564;53.346;-6.554;2022-11-14T05:33:57;1;1;
40371;PMS5003;28564;53.346;-6.554;2022-11-14T05:36:25;2;2;
40371;PMS5003;28564;53.346;-6.554;2022-11-14T05:38:52;2;2;
40371;PMS5003;28564;53.346;-6.554;2022-11-14T05:41:20;4;2;
40371;PMS5003;28564;53.346;-6.554;2022-11-14T05:43:47;3;1;
40371;PMS5003;28564;53.346;-6.554;2022-11-14T05:46:14;3;2;
40371;PMS5003;28564;53.346;-6.554;2022-11-14T05:48:42;1;1;
40371;PMS5003;28564;53.346;-6.554;2022-11-14T05:51:10;2;2;
40371;PMS5003;28564;53.346;-6.554;2022-11-14T05:53:38;2;2;
40371;PMS5003;28564;53.346;-6.554;2022-11-14T05:56:09;1;1;
40371;PMS5003;28564;53.346;-6.554;2022-11-14T05:58:38;1;1;
40371;PMS5003;28564;53.346;-6.554;2022-11-14T06:01:06;2;2;
40371;PMS5003;28564;53.346;-6.554;2022-11-14T06:03:36;2;2;
40371;PMS5003;28564;53.346;-6.554;2022-11-14T06:06:06;3;3;
40371;PMS5003;28564;53.346;-6.554;2022-11-14T06:08:34;2;2;
40371;PMS5003;28564;53.346;-6.554;2022-11-14T06:11:02;2;2;
40371;PMS5003;28564;53.346;-6.554;2022-11-14T06:13:32;2;2;
40371;PMS5003;28564;53.346;-6.554;2022-11-14T06:16:00;4;4;
40371;PMS5003;28564;53.346;-6.554;2022-11-14T06:18:29;2;2;
40371;PMS5003;28564;53.346;-6.554;2022-11-14T06:20:58;1;1;
40371;PMS5003;28564;53.346;-6.554;2022-11-14T06:23:25;2;2;
40371;PMS5003;28564;53.346;-6.554;2022-11-14T06:25:56;2;1;
40371;PMS5003;28564;53.346;-6.554;2022-11-14T06:28:24;2;2;
40371;PMS5003;28564;53.346;-6.554;2022-11-14T06:30:54;2;2;
40371;PMS5003;28564;53.346;-6.554;2022-11-14T06:33:23;3;1;
40371;PMS5003;28564;53.346;-6.554;2022-11-14T06:35:50;2;2;
40371;PMS5003;28564;53.346;-6.554;2022-11-14T06:38:22;2;2;
40371;PMS5003;28564;53.346;-6.554;2022-11-14T06:40:49;2;2;
40371;PMS5003;28564;53.346;-6.554;2022-11-14T06:43:17;2;2;
40371;PMS5003;28564;53.346;-6.554;2022-11-14T06:45:44;4;3;
40371;PMS5003;28564;53.346;-6.554;2022-11-14T06:48:11;4;3;
40371;PMS5003;28564;53.346;-6.554;2022-11-14T06:50:38;4;2;
40371;PMS5003;28564;53.346;-6.554;2022-11-14T06:53:05;2;2;
40371;PMS5003;28564;53.346;-6.554;2022-11-14T06:55:32;4;2;
40371;PMS5003;28564;53.346;-6.554;2022-11-14T06:58:00;4;4;
40371;PMS5003;28564;53.346;-6.554;2022-11-14T07:00:27;4;3;
40371;PMS5003;28564;53.346;-6.554;2022-11-14T07:02:54;3;2;
40371;PMS5003;28564;53.346;-6.554;2022-11-14T07:05:21;2;2;
40371;PMS5003;28564;53.346;-6.554;2022-11-14T07:07:48;3;2;
40371;PMS5003;28564;53.346;-6.554;2022-11-14T07:10:15;3;3;
40371;PMS5003;28564;53.346;-6.554;2022-11-14T07:12:42;2;2;
40371;PMS5003;28564;53.346;-6.554;2022-11-14T07:15:10;1;1;
40371;PMS5003;28564;53.346;-6.554;2022-11-14T07:17:37;2;1;
40371;PMS5003;28564;53.346;-6.554;2022-11-14T07:20:04;2;2;
40371;PMS5003;28564;53.346;-6.554;2022-11-14T07:22:32;1;1;
40371;PMS5003;28564;53.346;-6.554;2022-11-14T07:24:59;1;1;
40371;PMS5003;28564;53.346;-6.554;2022-11-14T07:27:26;1;1;
40371;PMS5003;28564;53.346;-6.554;2022-11-14T07:29:53;2;1;
40371;PMS5003;28564;53.346;-6.554;2022-11-14T07:32:21;1;1;
40371;PMS5003;28564;53.346;-6.554;2022-11-14T07:34:48;1;1;
40371;PMS5003;28564;53.346;-6.554;2022-11-14T07:37:15;2;1;
40371;PMS5003;28564;53.346;-6.554;2022-11-14T07:39:42;2;1;
40371;PMS5003;28564;53.346;-6.554;2022-11-14T07:42:09;0;0;
40371;PMS5003;28564;53.346;-6.554;2022-11-14T07:44:36;2;1;
40371;PMS5003;28564;53.346;-6.554;2022-11-14T07:47:04;0;0;
40371;PMS5003;28564;53.346;-6.554;2022-11-14T07:49:31;0;0;
40371;PMS5003;28564;53.346;-6.554;2022-11-14T07:51:58;0;0;
40371;PMS5003;28564;53.346;-6.554;2022-11-14T07:54:25;1;1;
40371;PMS5003;28564;53.346;-6.554;2022-11-14T07:56:52;1;1;
40371;PMS5003;28564;53.346;-6.554;2022-11-14T07:59:19;3;2;
40371;PMS5003;28564;53.346;-6.554;2022-11-14T08:01:47;1;1;
40371;PMS5003;28564;53.346;-6.554;2022-11-14T08:04:14;2;2;
40371;PMS5003;28564;53.346;-6.554;2022-11-14T08:06:41;2;2;
40371;PMS5003;28564;53.346;-6.554;2022-11-14T08:09:08;1;1;
40371;PMS5003;28564;53.346;-6.554;2022-11-14T08:11:35;2;2;
40371;PMS5003;28564;53.346;-6.554;2022-11-14T08:14:02;2;1;
40371;PMS5003;28564;53.346;-6.554;2022-11-14T08:16:30;1;1;
40371;PMS5003;28564;53.346;-6.554;2022-11-14T08:18:57;2;1;
40371;PMS5003;28564;53.346;-6.554;2022-11-14T08:21:24;1;1;
40371;PMS5003;28564;53.346;-6.554;2022-11-14T08:23:51;2;1;
40371;PMS5003;28564;53.346;-6.554;2022-11-14T08:26:18;2;2;
40371;PMS5003;28564;53.346;-6.554;2022-11-14T08:28:45;1;1;
40371;PMS5003;28564;53.346;-6.554;2022-11-14T08:31:13;1;1;
40371;PMS5003;28564;53.346;-6.554;2022-11-14T08:33:40;3;2;
40371;PMS5003;28564;53.346;-6.554;2022-11-14T08:36:08;1;1;
40371;PMS5003;28564;53.346;-6.554;2022-11-14T08:38:36;1;1;
40371;PMS5003;28564;53.346;-6.554;2022-11-14T08:41:03;2;2;
40371;PMS5003;28564;53.346;-6.554;2022-11-14T08:43:30;1;1;
40371;PMS5003;28564;53.346;-6.554;2022-11-14T08:45:57;2;2;
40371;PMS5003;28564;53.346;-6.554;2022-11-14T08:48:25;1;1;
40371;PMS5003;28564;53.346;-6.554;2022-11-14T08:50:52;2;1;
40371;PMS5003;28564;53.346;-6.554;2022-11-14T08:53:20;2;1;
40371;PMS5003;28564;53.346;-6.554;2022-11-14T08:55:47;1;1;
40371;PMS5003;28564;53.346;-6.554;2022-11-14T08:58:15;2;2;
40371;PMS5003;28564;53.346;-6.554;2022-11-14T09:00:42;3;2;
40371;PMS5003;28564;53.346;-6.554;2022-11-14T09:03:09;3;3;
40371;PMS5003;28564;53.346;-6.554;2022-11-14T09:05:37;3;3;
40371;PMS5003;28564;53.346;-6.554;2022-11-14T09:08:04;4;4;
40371;PMS5003;28564;53.346;-6.554;2022-11-14T09:10:32;3;3;
40371;PMS5003;28564;53.346;-6.554;2022-11-14T09:13:00;3;3;
40371;PMS5003;28564;53.346;-6.554;2022-11-14T09:15:28;2;2;
40371;PMS5003;28564;53.346;-6.554;2022-11-14T09:17:56;3;3;
40371;PMS5003;28564;53.346;-6.554;2022-11-14T09:20:24;3;3;
40371;PMS5003;28564;53.346;-6.554;2022-11-14T09:22:53;2;2;
40371;PMS5003;28564;53.346;-6.554;2022-11-14T09:25:20;1;1;
40371;PMS5003;28564;53.346;-6.554;2022-11-14T09:27:47;2;2;
40371;PMS5003;28564;53.346;-6.554;2022-11-14T09:30:14;5;3;
40371;PMS5003;28564;53.346;-6.554;2022-11-14T09:32:41;2;2;
40371;PMS5003;28564;53.346;-6.554;2022-11-14T09:35:08;4;4;
40371;PMS5003;28564;53.346;-6.554;2022-11-14T09:37:36;6;2;
40371;PMS5003;28564;53.346;-6.554;2022-11-14T09:40:03;8;5;
40371;PMS5003;28564;53.346;-6.554;2022-11-14T09:42:35;2;1;
40371;PMS5003;28564;53.346;-6.554;2022-11-14T09:45:13;4;2;
40371;PMS5003;28564;53.346;-6.554;2022-11-14T09:47:42;4;2;
40371;PMS5003;28564;53.346;-6.554;2022-11-14T09:50:12;4;2;
40371;PMS5003;28564;53.346;-6.554;2022-11-14T09:52:41;1;1;
40371;PMS5003;28564;53.346;-6.554;2022-11-14T09:55:13;2;2;
40371;PMS5003;28564;53.346;-6.554;2022-11-14T09:57:43;2;2;
40371;PMS5003;28564;53.346;-6.554;2022-11-14T10:00:12;4;1;
40371;PMS5003;28564;53.346;-6.554;2022-11-14T10:02:45;2;2;
40371;PMS5003;28564;53.346;-6.554;2022-11-14T10:05:26;1;1;
40371;PMS5003;28564;53.346;-6.554;2022-11-14T10:08:07;1;1;
40371;PMS5003;28564;53.346;-6.554;2022-11-14T10:10:48;1;1;
40371;PMS5003;28564;53.346;-6.554;2022-11-14T10:13:25;1;1;
40371;PMS5003;28564;53.346;-6.554;2022-11-14T10:16:03;2;2;
40371;PMS5003;28564;53.346;-6.554;2022-11-14T10:18:45;3;1;
40371;PMS5003;28564;53.346;-6.554;2022-11-14T10:21:27;3;1;
40371;PMS5003;28564;53.346;-6.554;2022-11-14T10:24:10;3;3;
40371;PMS5003;28564;53.346;-6.554;2022-11-14T10:26:51;5;3;
40371;PMS5003;28564;53.346;-6.554;2022-11-14T10:29:30;2;2;
40371;PMS5003;28564;53.346;-6.554;2022-11-14T10:32:09;3;3;
40371;PMS5003;28564;53.346;-6.554;2022-11-14T10:34:48;2;2;
40371;PMS5003;28564;53.346;-6.554;2022-11-14T10:37:22;4;3;
40371;PMS5003;28564;53.346;-6.554;2022-11-14T10:39:53;6;3;
40371;PMS5003;28564;53.346;-6.554;2022-11-14T10:42:28;3;2;
40371;PMS5003;28564;53.346;-6.554;2022-11-14T10:45:01;5;1;
40371;PMS5003;28564;53.346;-6.554;2022-11-14T10:47:35;2;1;
40371;PMS5003;28564;53.346;-6.554;2022-11-14T10:50:13;2;2;
40371;PMS5003;28564;53.346;-6.554;2022-11-14T10:52:43;2;2;
40371;PMS5003;28564;53.346;-6.554;2022-11-14T10:55:13;3;3;
40371;PMS5003;28564;53.346;-6.554;2022-11-14T10:57:42;9;9;
40371;PMS5003;28564;53.346;-6.554;2022-11-14T11:00:12;14;14;
40371;PMS5003;28564;53.346;-6.554;2022-11-14T11:02:46;14;11;
40371;PMS5003;28564;53.346;-6.554;2022-11-14T11:05:16;8;8;
40371;PMS5003;28564;53.346;-6.554;2022-11-14T11:07:46;8;7;
40371;PMS5003;28564;53.346;-6.554;2022-11-14T11:10:19;8;8;
40371;PMS5003;28564;53.346;-6.554;2022-11-14T11:12:48;10;10;
40371;PMS5003;28564;53.346;-6.554;2022-11-14T11:15:18;14;14;
40371;PMS5003;28564;53.346;-6.554;2022-11-14T11:17:52;17;15;
40371;PMS5003;28564;53.346;-6.554;2022-11-14T11:20:23;9;9;
40371;PMS5003;28564;53.346;-6.554;2022-11-14T11:23:00;7;6;
40371;PMS5003;28564;53.346;-6.554;2022-11-14T11:25:29;4;4;
40371;PMS5003;28564;53.346;-6.554;2022-11-14T11:28:06;2;2;
40371;PMS5003;28564;53.346;-6.554;2022-11-14T11:30:38;8;5;
40371;PMS5003;28564;53.346;-6.554;2022-11-14T11:33:13;8;8;
40371;PMS5003;28564;53.346;-6.554;2022-11-14T11:35:42;1;1;
40371;PMS5003;28564;53.346;-6.554;2022-11-14T11:38:14;2;2;
40371;PMS5003;28564;53.346;-6.554;2022-11-14T11:40:43;2;2;
40371;PMS5003;28564;53.346;-6.554;2022-11-14T11:43:15;3;3;
40371;PMS5003;28564;53.346;-6.554;2022-11-14T11:45:46;2;2;
40371;PMS5003;28564;53.346;-6.554;2022-11-14T11:48:16;3;1;
40371;PMS5003;28564;53.346;-6.554;2022-11-14T11:50:45;1;1;
40371;PMS5003;28564;53.346;-6.554;2022-11-14T11:53:15;3;2;
40371;PMS5003;28564;53.346;-6.554;2022-11-14T11:55:48;9;7;
40371;PMS5003;28564;53.346;-6.554;2022-11-14T11:58:21;3;3;
40371;PMS5003;28564;53.346;-6.554;2022-11-14T12:00:52;3;3;
40371;PMS5003;28564;53.346;-6.554;2022-11-14T12:03:20;3;2;
40371;PMS5003;28564;53.346;-6.554;2022-11-14T12:05:52;1;1;
40371;PMS5003;28564;53.346;-6.554;2022-11-14T12:08:27;7;7;
40371;PMS5003;28564;53.346;-6.554;2022-11-14T12:11:03;1;1;
40371;PMS5003;28564;53.346;-6.554;2022-11-14T12:13:55;2;1;
40371;PMS5003;28564;53.346;-6.554;2022-11-14T12:16:38;2;2;
40371;PMS5003;28564;53.346;-6.554;2022-11-14T12:19:32;0;0;
40371;PMS5003;28564;53.346;-6.554;2022-11-14T12:22:21;2;2;
40371;PMS5003;28564;53.346;-6.554;2022-11-14T12:25:12;2;2;
40371;PMS5003;28564;53.346;-6.554;2022-11-14T12:27:58;4;2;
40371;PMS5003;28564;53.346;-6.554;2022-11-14T12:30:38;0;0;
40371;PMS5003;28564;53.346;-6.554;2022-11-14T12:33:08;1;1;
40371;PMS5003;28564;53.346;-6.554;2022-11-14T12:35:39;2;0;
40371;PMS5003;28564;53.346;-6.554;2022-11-14T12:38:15;1;1;
40371;PMS5003;28564;53.346;-6.554;2022-11-14T12:40:48;0;0;
40371;PMS5003;28564;53.346;-6.554;2022-11-14T12:43:24;1;0;
40371;PMS5003;28564;53.346;-6.554;2022-11-14T12:45:59;4;3;
40371;PMS5003;28564;53.346;-6.554;2022-11-14T12:48:29;3;3;
40371;PMS5003;28564;53.346;-6.554;2022-11-14T12:50:59;3;2;
40371;PMS5003;28564;53.346;-6.554;2022-11-14T12:53:43;1;0;
40371;PMS5003;28564;53.346;-6.554;2022-11-14T12:56:13;2;1;
40371;PMS5003;28564;53.346;-6.554;2022-11-14T12:58:57;4;4;
40371;PMS5003;28564;53.346;-6.554;2022-11-14T13:01:41;5;3;
40371;PMS5003;28564;53.346;-6.554;2022-11-14T13:04:17;2;2;
40371;PMS5003;28564;53.346;-6.554;2022-11-14T13:06:57;3;3;
40371;PMS5003;28564;53.346;-6.554;2022-11-14T13:09:40;5;5;
40371;PMS5003;28564;53.346;-6.554;2022-11-14T13:12:30;12;10;
40371;PMS5003;28564;53.346;-6.554;2022-11-14T13:14:59;12;12;
40371;PMS5003;28564;53.346;-6.554;2022-11-14T13:17:59;9;7;
40371;PMS5003;28564;53.346;-6.554;2022-11-14T13:20:30;8;4;
40371;PMS5003;28564;53.346;-6.554;2022-11-14T13:23:00;6;5;
40371;PMS5003;28564;53.346;-6.554;2022-11-14T13:25:27;7;5;
40371;PMS5003;28564;53.346;-6.554;2022-11-14T13:27:54;3;3;
40371;PMS5003;28564;53.346;-6.554;2022-11-14T13:30:45;2;2;
40371;PMS5003;28564;53.346;-6.554;2022-11-14T13:33:39;4;1;
40371;PMS5003;28564;53.346;-6.554;2022-11-14T13:36:07;1;1;
40371;PMS5003;28564;53.346;-6.554;2022-11-14T13:39:43;2;1;
40371;PMS5003;28564;53.346;-6.554;2022-11-14T13:42:25;2;1;
40371;PMS5003;28564;53.346;-6.554;2022-11-14T13:45:14;0;0;
40371;PMS5003;28564;53.346;-6.554;2022-11-14T13:47:56;2;1;
40371;PMS5003;28564;53.346;-6.554;2022-11-14T13:50:36;1;1;
40371;PMS5003;28564;53.346;-6.554;2022-11-14T13:53:10;2;1;
40371;PMS5003;28564;53.346;-6.554;2022-11-14T13:55:46;0;0;
40371;PMS5003;28564;53.346;-6.554;2022-11-14T13:58:26;0;0;
40371;PMS5003;28564;53.346;-6.554;2022-11-14T14:01:07;0;0;
40371;PMS5003;28564;53.346;-6.554;2022-11-14T14:03:49;1;0;
40371;PMS5003;28564;53.346;-6.554;2022-11-14T14:06:35;0;0;
40371;PMS5003;28564;53.346;-6.554;2022-11-14T14:09:16;3;1;
40371;PMS5003;28564;53.346;-6.554;2022-11-14T14:11:56;2;0;
40371;PMS5003;28564;53.346;-6.554;2022-11-14T14:14:44;0;0;
40371;PMS5003;28564;53.346;-6.554;2022-11-14T14:17:26;0;0;
40371;PMS5003;28564;53.346;-6.554;2022-11-14T14:20:00;0;0;
40371;PMS5003;28564;53.346;-6.554;2022-11-14T14:22:41;0;0;
40371;PMS5003;28564;53.346;-6.554;2022-11-14T14:25:20;0;0;
40371;PMS5003;28564;53.346;-6.554;2022-11-14T14:27:53;1;1;
40371;PMS5003;28564;53.346;-6.554;2022-11-14T14:30:31;2;0;
40371;PMS5003;28564;53.346;-6.554;2022-11-14T14:33:03;1;0;
40371;PMS5003;28564;53.346;-6.554;2022-11-14T14:35:37;0;0;
40371;PMS5003;28564;53.346;-6.554;2022-11-14T14:38:21;3;0;
40371;PMS5003;28564;53.346;-6.554;2022-11-14T14:40:50;0;0;
40371;PMS5003;28564;53.346;-6.554;2022-11-14T14:43:23;2;0;
40371;PMS5003;28564;53.346;-6.554;2022-11-14T14:45:54;0;0;
40371;PMS5003;28564;53.346;-6.554;2022-11-14T14:48:22;3;2;
40371;PMS5003;28564;53.346;-6.554;2022-11-14T14:50:53;3;3;
40371;PMS5003;28564;53.346;-6.554;2022-11-14T14:53:21;3;2;
40371;PMS5003;28564;53.346;-6.554;2022-11-14T14:55:52;4;3;
40371;PMS5003;28564;53.346;-6.554;2022-11-14T14:58:23;4;4;
40371;PMS5003;28564;53.346;-6.554;2022-11-14T15:00:53;4;4;
40371;PMS5003;28564;53.346;-6.554;2022-11-14T15:03:24;9;9;
40371;PMS5003;28564;53.346;-6.554;2022-11-14T15:05:57;12;12;
40371;PMS5003;28564;53.346;-6.554;2022-11-14T15:08:26;11;11;
40371;PMS5003;28564;53.346;-6.554;2022-11-14T15:10:56;18;17;
40371;PMS5003;28564;53.346;-6.554;2022-11-14T15:13:25;23;23;
40371;PMS5003;28564;53.346;-6.554;2022-11-14T15:15:54;10;9;
40371;PMS5003;28564;53.346;-6.554;2022-11-14T15:18:23;4;4;
40371;PMS5003;28564;53.346;-6.554;2022-11-14T15:21:09;3;1;
40371;PMS5003;28564;53.346;-6.554;2022-11-14T15:23:41;1;1;
40371;PMS5003;28564;53.346;-6.554;2022-11-14T15:26:10;2;2;
40371;PMS5003;28564;53.346;-6.554;2022-11-14T15:28:40;6;5;
40371;PMS5003;28564;53.346;-6.554;2022-11-14T15:31:14;5;5;
40371;PMS5003;28564;53.346;-6.554;2022-11-14T15:33:43;9;9;
40371;PMS5003;28564;53.346;-6.554;2022-11-14T15:36:12;9;9;
40371;PMS5003;28564;53.346;-6.554;2022-11-14T15:38:56;10;10;
40371;PMS5003;28564;53.346;-6.554;2022-11-14T15:41:24;14;10;
40371;PMS5003;28564;53.346;-6.554;2022-11-14T15:43:53;4;4;
40371;PMS5003;28564;53.346;-6.554;2022-11-14T15:46:33;1;1;
40371;PMS5003;28564;53.346;-6.554;2022-11-14T15:49:06;2;2;
40371;PMS5003;28564;53.346;-6.554;2022-11-14T15:51:37;1;1;
40371;PMS5003;28564;53.346;-6.554;2022-11-14T15:54:17;1;1;
40371;PMS5003;28564;53.346;-6.554;2022-11-14T15:56:49;3;3;
40371;PMS5003;28564;53.346;-6.554;2022-11-14T15:59:17;3;3;
40371;PMS5003;28564;53.346;-6.554;2022-11-14T16:01:45;3;2;
40371;PMS5003;28564;53.346;-6.554;2022-11-14T16:04:15;3;2;
40371;PMS5003;28564;53.346;-6.554;2022-11-14T16:06:44;2;2;
40371;PMS5003;28564;53.346;-6.554;2022-11-14T16:09:15;4;2;
40371;PMS5003;28564;53.346;-6.554;2022-11-14T16:11:44;4;2;
40371;PMS5003;28564;53.346;-6.554;2022-11-14T16:14:12;1;1;
40371;PMS5003;28564;53.346;-6.554;2022-11-14T16:16:39;1;1;
40371;PMS5003;28564;53.346;-6.554;2022-11-14T16:19:06;1;1;
40371;PMS5003;28564;53.346;-6.554;2022-11-14T16:21:36;1;1;
40371;PMS5003;28564;53.346;-6.554;2022-11-14T16:24:03;2;0;
40371;PMS5003;28564;53.346;-6.554;2022-11-14T16:26:31;7;4;
40371;PMS5003;28564;53.346;-6.554;2022-11-14T16:28:58;5;4;
40371;PMS5003;28564;53.346;-6.554;2022-11-14T16:31:25;6;3;
40371;PMS5003;28564;53.346;-6.554;2022-11-14T16:33:53;1;1;
40371;PMS5003;28564;53.346;-6.554;2022-11-14T16:36:20;4;1;
40371;PMS5003;28564;53.346;-6.554;2022-11-14T16:38:47;4;2;
40371;PMS5003;28564;53.346;-6.554;2022-11-14T16:41:14;3;3;
40371;PMS5003;28564;53.346;-6.554;2022-11-14T16:43:42;3;2;
40371;PMS5003;28564;53.346;-6.554;2022-11-14T16:46:10;8;8;
40371;PMS5003;28564;53.346;-6.554;2022-11-14T16:48:37;18;15;
40371;PMS5003;28564;53.346;-6.554;2022-11-14T16:51:04;11;11;
40371;PMS5003;28564;53.346;-6.554;2022-11-14T16:53:31;15;8;
40371;PMS5003;28564;53.346;-6.554;2022-11-14T16:55:58;16;14;